sensor_id;sensor_type;location;lat;lon;timestamp;pressure;altitude;pressure_sealevel;temperature;humidity
69855;BME280;57146;48.140;16.304;2023-04-23T00:00:42;98807.13;;;12.12;63.11
69855;BME280;57146;48.140;16.304;2023-04-23T00:03:10;98806.97;;;12.08;63.10
69855;BME280;57146;48.140;16.304;2023-04-23T00:05:42;98814.91;;;12.08;62.99
69855;BME280;57146;48.140;16.304;2023-04-23T00:08:10;98809.34;;;12.01;63.78
69855;BME280;57146;48.140;16.304;2023-04-23T00:10:38;98814.19;;;11.99;63.44
69855;BME280;57146;48.140;16.304;2023-04-23T00:13:06;98809.28;;;11.89;63.79
69855;BME280;57146;48.140;16.304;2023-04-23T00:15:33;98803.53;;;11.87;64.39
69855;BME280;57146;48.140;16.304;2023-04-23T00:18:00;98807.63;;;11.75;64.63
69855;BME280;57146;48.140;16.304;2023-04-23T00:20:27;98800.19;;;11.69;65.04
69855;BME280;57146;48.140;16.304;2023-04-23T00:22:54;98801.38;;;11.80;64.54
69855;BME280;57146;48.140;16.304;2023-04-23T00:25:21;98802.97;;;11.72;64.51
69855;BME280;57146;48.140;16.304;2023-04-23T00:27:48;98804.97;;;11.75;64.86
69855;BME280;57146;48.140;16.304;2023-04-23T00:30:16;98803.59;;;11.69;64.71
69855;BME280;57146;48.140;16.304;2023-04-23T00:32:43;98803.59;;;11.69;64.70
69855;BME280;57146;48.140;16.304;2023-04-23T00:35:11;98794.84;;;11.57;64.96
69855;BME280;57146;48.140;16.304;2023-04-23T00:37:39;98795.28;;;11.59;64.65
69855;BME280;57146;48.140;16.304;2023-04-23T00:40:06;98791.13;;;11.49;65.44
69855;BME280;57146;48.140;16.304;2023-04-23T00:42:35;98793.47;;;11.42;65.48
69855;BME280;57146;48.140;16.304;2023-04-23T00:45:05;98795.69;;;11.40;65.80
69855;BME280;57146;48.140;16.304;2023-04-23T00:47:33;98792.63;;;11.29;66.09
69855;BME280;57146;48.140;16.304;2023-04-23T00:50:03;98787.22;;;11.17;66.70
69855;BME280;57146;48.140;16.304;2023-04-23T00:52:34;98783.84;;;11.08;67.21
69855;BME280;57146;48.140;16.304;2023-04-23T00:55:01;98787.28;;;10.99;67.42
69855;BME280;57146;48.140;16.304;2023-04-23T00:57:28;98788.06;;;10.91;67.86
69855;BME280;57146;48.140;16.304;2023-04-23T00:59:59;98787.91;;;10.88;67.78
69855;BME280;57146;48.140;16.304;2023-04-23T01:02:28;98784.50;;;10.87;67.98
69855;BME280;57146;48.140;16.304;2023-04-23T01:04:57;98782.63;;;10.88;67.92
69855;BME280;57146;48.140;16.304;2023-04-23T01:07:26;98784.34;;;10.84;67.84
69855;BME280;57146;48.140;16.304;2023-04-23T01:09:54;98779.72;;;10.81;68.25
69855;BME280;57146;48.140;16.304;2023-04-23T01:12:22;98780.03;;;10.79;68.27
69855;BME280;57146;48.140;16.304;2023-04-23T01:14:50;98786.69;;;10.76;68.51
69855;BME280;57146;48.140;16.304;2023-04-23T01:17:17;98781.28;;;10.73;68.39
69855;BME280;57146;48.140;16.304;2023-04-23T01:19:48;98783.91;;;10.82;67.93
69855;BME280;57146;48.140;16.304;2023-04-23T01:22:15;98781.25;;;10.90;68.01
69855;BME280;57146;48.140;16.304;2023-04-23T01:24:43;98789.78;;;10.96;67.61
69855;BME280;57146;48.140;16.304;2023-04-23T01:27:11;98784.94;;;10.98;67.51
69855;BME280;57146;48.140;16.304;2023-04-23T01:29:38;98773.59;;;11.06;67.43
69855;BME280;57146;48.140;16.304;2023-04-23T01:32:07;98766.00;;;11.13;67.20
69855;BME280;57146;48.140;16.304;2023-04-23T01:34:37;98772.50;;;11.16;67.05
69855;BME280;57146;48.140;16.304;2023-04-23T01:37:08;98773.88;;;11.22;66.73
69855;BME280;57146;48.140;16.304;2023-04-23T01:39:37;98772.94;;;11.26;66.91
69855;BME280;57146;48.140;16.304;2023-04-23T01:42:09;98770.00;;;11.28;66.64
69855;BME280;57146;48.140;16.304;2023-04-23T01:44:35;98771.84;;;11.27;66.27
69855;BME280;57146;48.140;16.304;2023-04-23T01:47:03;98774.66;;;11.22;66.34
69855;BME280;57146;48.140;16.304;2023-04-23T01:49:33;98777.03;;;11.07;66.82
69855;BME280;57146;48.140;16.304;2023-04-23T01:52:00;98780.44;;;10.98;67.04
69855;BME280;57146;48.140;16.304;2023-04-23T01:54:52;98786.03;;;10.97;67.17
69855;BME280;57146;48.140;16.304;2023-04-23T01:57:20;98773.81;;;10.84;67.28
69855;BME280;57146;48.140;16.304;2023-04-23T01:59:54;98774.00;;;10.70;68.06
69855;BME280;57146;48.140;16.304;2023-04-23T02:02:23;98778.97;;;10.63;68.16
69855;BME280;57146;48.140;16.304;2023-04-23T02:04:51;98772.31;;;10.48;68.89
69855;BME280;57146;48.140;16.304;2023-04-23T02:07:20;98762.28;;;10.33;69.57
69855;BME280;57146;48.140;16.304;2023-04-23T02:09:47;98771.53;;;10.21;70.10
69855;BME280;57146;48.140;16.304;2023-04-23T02:12:14;98774.44;;;10.11;70.86
69855;BME280;57146;48.140;16.304;2023-04-23T02:14:41;98773.66;;;10.02;71.22
69855;BME280;57146;48.140;16.304;2023-04-23T02:17:12;98777.06;;;10.02;71.26
69855;BME280;57146;48.140;16.304;2023-04-23T02:19:39;98781.53;;;10.02;71.02
69855;BME280;57146;48.140;16.304;2023-04-23T02:22:07;98775.22;;;10.12;70.81
69855;BME280;57146;48.140;16.304;2023-04-23T02:24:34;98767.47;;;10.24;70.36
69855;BME280;57146;48.140;16.304;2023-04-23T02:27:04;98771.97;;;10.23;70.17
69855;BME280;57146;48.140;16.304;2023-04-23T02:29:31;98774.59;;;10.23;70.43
69855;BME280;57146;48.140;16.304;2023-04-23T02:31:58;98767.06;;;10.30;70.55
69855;BME280;57146;48.140;16.304;2023-04-23T02:34:25;98775.72;;;10.31;70.59
69855;BME280;57146;48.140;16.304;2023-04-23T02:36:52;98764.91;;;10.33;70.50
69855;BME280;57146;48.140;16.304;2023-04-23T02:39:20;98767.69;;;10.36;70.46
69855;BME280;57146;48.140;16.304;2023-04-23T02:41:47;98772.16;;;10.27;70.64
69855;BME280;57146;48.140;16.304;2023-04-23T02:44:15;98775.44;;;10.33;70.39
69855;BME280;57146;48.140;16.304;2023-04-23T02:46:42;98771.53;;;10.21;70.72
69855;BME280;57146;48.140;16.304;2023-04-23T02:49:10;98776.47;;;10.14;71.18
69855;BME280;57146;48.140;16.304;2023-04-23T02:51:37;98779.72;;;10.11;71.56
69855;BME280;57146;48.140;16.304;2023-04-23T02:54:04;98767.34;;;10.12;71.15
69855;BME280;57146;48.140;16.304;2023-04-23T02:56:31;98769.16;;;10.02;71.43
69855;BME280;57146;48.140;16.304;2023-04-23T02:59:02;98770.72;;;9.95;71.48
69855;BME280;57146;48.140;16.304;2023-04-23T03:01:29;98775.47;;;9.84;71.92
69855;BME280;57146;48.140;16.304;2023-04-23T03:03:57;98775.31;;;9.72;72.29
69855;BME280;57146;48.140;16.304;2023-04-23T03:06:25;98775.09;;;9.59;72.32
69855;BME280;57146;48.140;16.304;2023-04-23T03:08:52;98783.56;;;9.48;73.24
69855;BME280;57146;48.140;16.304;2023-04-23T03:11:19;98772.72;;;9.41;73.25
69855;BME280;57146;48.140;16.304;2023-04-23T03:13:49;98771.63;;;9.33;74.12
69855;BME280;57146;48.140;16.304;2023-04-23T03:16:17;98775.63;;;9.30;73.89
69855;BME280;57146;48.140;16.304;2023-04-23T03:18:45;98775.59;;;9.22;74.42
69855;BME280;57146;48.140;16.304;2023-04-23T03:21:12;98773.25;;;9.20;74.30
69855;BME280;57146;48.140;16.304;2023-04-23T03:23:39;98776.31;;;9.14;74.88
69855;BME280;57146;48.140;16.304;2023-04-23T03:26:06;98775.53;;;9.13;74.95
69855;BME280;57146;48.140;16.304;2023-04-23T03:28:33;98782.31;;;9.14;74.75
69855;BME280;57146;48.140;16.304;2023-04-23T03:31:00;98778.34;;;9.17;74.43
69855;BME280;57146;48.140;16.304;2023-04-23T03:33:27;98778.81;;;9.19;74.36
69855;BME280;57146;48.140;16.304;2023-04-23T03:35:55;98781.88;;;9.12;75.05
69855;BME280;57146;48.140;16.304;2023-04-23T03:38:27;98775.78;;;9.03;75.29
69855;BME280;57146;48.140;16.304;2023-04-23T03:40:57;98777.00;;;8.97;75.17
69855;BME280;57146;48.140;16.304;2023-04-23T03:43:26;98783.44;;;8.91;75.85
69855;BME280;57146;48.140;16.304;2023-04-23T03:46:17;98780.66;;;8.87;75.96
69855;BME280;57146;48.140;16.304;2023-04-23T03:48:49;98786.63;;;8.79;75.88
69855;BME280;57146;48.140;16.304;2023-04-23T03:51:23;98787.41;;;8.79;76.14
69855;BME280;57146;48.140;16.304;2023-04-23T03:53:50;98792.66;;;8.79;76.34
69855;BME280;57146;48.140;16.304;2023-04-23T03:56:35;98799.09;;;8.73;76.38
69855;BME280;57146;48.140;16.304;2023-04-23T03:59:36;98788.22;;;8.66;76.89
69855;BME280;57146;48.140;16.304;2023-04-23T04:02:04;98790.97;;;8.61;77.25
69855;BME280;57146;48.140;16.304;2023-04-23T04:04:31;98788.81;;;8.63;76.87
69855;BME280;57146;48.140;16.304;2023-04-23T04:06:59;98788.19;;;8.57;76.88
69855;BME280;57146;48.140;16.304;2023-04-23T04:09:30;98791.22;;;8.51;77.85
69855;BME280;57146;48.140;16.304;2023-04-23T04:12:00;98784.22;;;8.46;77.79
69855;BME280;57146;48.140;16.304;2023-04-23T04:14:27;98791.22;;;8.51;77.35
69855;BME280;57146;48.140;16.304;2023-04-23T04:16:54;98793.66;;;8.47;77.94
69855;BME280;57146;48.140;16.304;2023-04-23T04:19:23;98798.72;;;8.44;78.49
69855;BME280;57146;48.140;16.304;2023-04-23T04:21:50;98797.16;;;8.43;78.54
69855;BME280;57146;48.140;16.304;2023-04-23T04:24:20;98806.88;;;8.42;78.89
69855;BME280;57146;48.140;16.304;2023-04-23T04:26:51;98805.31;;;8.41;78.62
69855;BME280;57146;48.140;16.304;2023-04-23T04:29:18;98806.59;;;8.44;79.06
69855;BME280;57146;48.140;16.304;2023-04-23T04:31:45;98812.28;;;8.46;79.47
69855;BME280;57146;48.140;16.304;2023-04-23T04:34:12;98808.97;;;8.54;79.32
69855;BME280;57146;48.140;16.304;2023-04-23T04:36:39;98811.72;;;8.71;79.02
69855;BME280;57146;48.140;16.304;2023-04-23T04:39:06;98823.38;;;8.79;78.68
69855;BME280;57146;48.140;16.304;2023-04-23T04:41:35;98816.28;;;8.79;78.75
69855;BME280;57146;48.140;16.304;2023-04-23T04:44:02;98818.75;;;8.84;78.34
69855;BME280;57146;48.140;16.304;2023-04-23T04:46:30;98812.16;;;8.87;78.81
69855;BME280;57146;48.140;16.304;2023-04-23T04:48:57;98819.72;;;8.88;78.82
69855;BME280;57146;48.140;16.304;2023-04-23T04:51:24;98828.59;;;9.01;78.58
69855;BME280;57146;48.140;16.304;2023-04-23T04:53:52;98828.97;;;9.08;77.93
69855;BME280;57146;48.140;16.304;2023-04-23T04:56:19;98825.75;;;9.11;78.11
69855;BME280;57146;48.140;16.304;2023-04-23T04:58:46;98829.78;;;9.18;78.20
69855;BME280;57146;48.140;16.304;2023-04-23T05:01:13;98836.00;;;9.22;78.18
69855;BME280;57146;48.140;16.304;2023-04-23T05:03:41;98839.16;;;9.32;78.22
69855;BME280;57146;48.140;16.304;2023-04-23T05:06:09;98839.66;;;9.43;77.87
69855;BME280;57146;48.140;16.304;2023-04-23T05:08:36;98834.75;;;9.50;77.52
69855;BME280;57146;48.140;16.304;2023-04-23T05:11:03;98837.88;;;9.61;77.78
69855;BME280;57146;48.140;16.304;2023-04-23T05:13:32;98838.69;;;9.70;77.15
69855;BME280;57146;48.140;16.304;2023-04-23T05:15:59;98846.59;;;9.79;77.23
69855;BME280;57146;48.140;16.304;2023-04-23T05:18:26;98840.13;;;9.85;76.74
69855;BME280;57146;48.140;16.304;2023-04-23T05:20:53;98842.63;;;9.90;76.95
69855;BME280;57146;48.140;16.304;2023-04-23T05:23:20;98844.03;;;9.96;76.62
69855;BME280;57146;48.140;16.304;2023-04-23T05:25:47;98843.28;;;10.04;76.64
69855;BME280;57146;48.140;16.304;2023-04-23T05:28:15;98847.31;;;10.11;76.36
69855;BME280;57146;48.140;16.304;2023-04-23T05:30:43;98850.88;;;10.15;75.97
69855;BME280;57146;48.140;16.304;2023-04-23T05:33:09;98843.16;;;10.18;76.43
69855;BME280;57146;48.140;16.304;2023-04-23T05:35:37;98856.66;;;10.25;76.30
69855;BME280;57146;48.140;16.304;2023-04-23T05:38:05;98859.59;;;10.33;75.74
69855;BME280;57146;48.140;16.304;2023-04-23T05:40:32;98853.91;;;10.39;75.44
69855;BME280;57146;48.140;16.304;2023-04-23T05:43:00;98851.88;;;10.45;75.28
69855;BME280;57146;48.140;16.304;2023-04-23T05:45:27;98857.44;;;10.52;75.14
69855;BME280;57146;48.140;16.304;2023-04-23T05:47:54;98857.75;;;10.59;74.88
69855;BME280;57146;48.140;16.304;2023-04-23T05:50:22;98853.59;;;10.67;74.50
69855;BME280;57146;48.140;16.304;2023-04-23T05:52:48;98856.22;;;10.75;73.73
69855;BME280;57146;48.140;16.304;2023-04-23T05:55:15;98864.88;;;10.85;73.45
69855;BME280;57146;48.140;16.304;2023-04-23T05:57:42;98860.53;;;10.97;73.93
69855;BME280;57146;48.140;16.304;2023-04-23T06:00:09;98857.41;;;11.13;73.44
69855;BME280;57146;48.140;16.304;2023-04-23T06:02:40;98859.41;;;11.33;72.71
69855;BME280;57146;48.140;16.304;2023-04-23T06:05:32;98859.03;;;11.52;72.17
69855;BME280;57146;48.140;16.304;2023-04-23T06:07:59;98862.72;;;11.68;71.46
69855;BME280;57146;48.140;16.304;2023-04-23T06:10:26;98858.94;;;11.87;70.47
69855;BME280;57146;48.140;16.304;2023-04-23T06:12:54;98861.69;;;11.99;70.84
69855;BME280;57146;48.140;16.304;2023-04-23T06:15:21;98862.72;;;12.07;69.93
69855;BME280;57146;48.140;16.304;2023-04-23T06:17:48;98860.22;;;12.10;70.02
69855;BME280;57146;48.140;16.304;2023-04-23T06:20:16;98867.78;;;12.20;68.95
69855;BME280;57146;48.140;16.304;2023-04-23T06:22:43;98866.03;;;12.25;69.28
69855;BME280;57146;48.140;16.304;2023-04-23T06:25:11;98868.31;;;12.35;68.65
69855;BME280;57146;48.140;16.304;2023-04-23T06:27:38;98866.81;;;12.46;68.00
69855;BME280;57146;48.140;16.304;2023-04-23T06:30:12;98868.69;;;12.45;67.03
69855;BME280;57146;48.140;16.304;2023-04-23T06:32:39;98869.13;;;12.48;66.83
69855;BME280;57146;48.140;16.304;2023-04-23T06:35:06;98867.84;;;12.54;67.53
69855;BME280;57146;48.140;16.304;2023-04-23T06:37:35;98874.63;;;12.63;68.33
69855;BME280;57146;48.140;16.304;2023-04-23T06:40:02;98864.88;;;12.76;67.46
69855;BME280;57146;48.140;16.304;2023-04-23T06:42:30;98865.59;;;12.85;68.34
69855;BME280;57146;48.140;16.304;2023-04-23T06:45:33;98867.97;;;12.99;68.10
69855;BME280;57146;48.140;16.304;2023-04-23T06:48:00;98874.28;;;13.19;67.02
69855;BME280;57146;48.140;16.304;2023-04-23T06:50:27;98871.25;;;13.29;66.68
69855;BME280;57146;48.140;16.304;2023-04-23T06:52:54;98862.78;;;13.36;65.75
69855;BME280;57146;48.140;16.304;2023-04-23T06:55:20;98861.28;;;13.47;64.96
69855;BME280;57146;48.140;16.304;2023-04-23T06:57:47;98860.84;;;13.57;65.11
69855;BME280;57146;48.140;16.304;2023-04-23T07:00:14;98862.63;;;13.65;63.68
69855;BME280;57146;48.140;16.304;2023-04-23T07:02:42;98868.13;;;13.73;65.28
69855;BME280;57146;48.140;16.304;2023-04-23T07:05:09;98858.34;;;13.85;65.47
69855;BME280;57146;48.140;16.304;2023-04-23T07:07:38;98855.56;;;13.94;64.35
69855;BME280;57146;48.140;16.304;2023-04-23T07:10:06;98857.34;;;14.02;63.93
69855;BME280;57146;48.140;16.304;2023-04-23T07:12:33;98856.44;;;14.10;64.12
69855;BME280;57146;48.140;16.304;2023-04-23T07:15:00;98856.00;;;14.21;61.82
69855;BME280;57146;48.140;16.304;2023-04-23T07:17:27;98852.13;;;14.30;63.44
69855;BME280;57146;48.140;16.304;2023-04-23T07:19:54;98844.50;;;14.41;62.70
69855;BME280;57146;48.140;16.304;2023-04-23T07:22:22;98846.69;;;14.51;62.57
69855;BME280;57146;48.140;16.304;2023-04-23T07:24:54;98846.66;;;14.64;61.87
69855;BME280;57146;48.140;16.304;2023-04-23T07:27:21;98853.00;;;14.75;61.67
69855;BME280;57146;48.140;16.304;2023-04-23T07:29:48;98854.75;;;14.83;61.04
69855;BME280;57146;48.140;16.304;2023-04-23T07:32:15;98854.84;;;14.87;61.03
69855;BME280;57146;48.140;16.304;2023-04-23T07:34:43;98852.81;;;14.96;61.51
69855;BME280;57146;48.140;16.304;2023-04-23T07:37:12;98858.31;;;15.03;60.55
69855;BME280;57146;48.140;16.304;2023-04-23T07:39:39;98862.00;;;15.14;60.29
69855;BME280;57146;48.140;16.304;2023-04-23T07:42:09;98851.94;;;15.20;60.13
69855;BME280;57146;48.140;16.304;2023-04-23T07:44:36;98852.13;;;15.27;59.83
69855;BME280;57146;48.140;16.304;2023-04-23T07:47:03;98850.31;;;15.31;60.88
69855;BME280;57146;48.140;16.304;2023-04-23T07:49:30;98859.91;;;15.36;59.83
69855;BME280;57146;48.140;16.304;2023-04-23T07:51:59;98854.88;;;15.46;60.10
69855;BME280;57146;48.140;16.304;2023-04-23T07:54:26;98850.84;;;15.52;58.75
69855;BME280;57146;48.140;16.304;2023-04-23T07:56:52;98854.44;;;15.60;59.57
69855;BME280;57146;48.140;16.304;2023-04-23T07:59:21;98859.94;;;15.67;58.05
69855;BME280;57146;48.140;16.304;2023-04-23T08:01:48;98858.66;;;15.77;58.53
69855;BME280;57146;48.140;16.304;2023-04-23T08:04:15;98858.47;;;15.86;58.46
69855;BME280;57146;48.140;16.304;2023-04-23T08:06:44;98851.72;;;15.88;57.82
69855;BME280;57146;48.140;16.304;2023-04-23T08:09:11;98861.38;;;15.96;58.76
69855;BME280;57146;48.140;16.304;2023-04-23T08:11:37;98858.13;;;16.03;58.82
69855;BME280;57146;48.140;16.304;2023-04-23T08:14:05;98857.06;;;16.08;57.44
69855;BME280;57146;48.140;16.304;2023-04-23T08:16:32;98855.00;;;16.17;57.62
69855;BME280;57146;48.140;16.304;2023-04-23T08:19:05;98856.28;;;16.23;57.50
69855;BME280;57146;48.140;16.304;2023-04-23T08:21:34;98860.03;;;16.22;58.04
69855;BME280;57146;48.140;16.304;2023-04-23T08:24:02;98864.16;;;16.19;57.79
69855;BME280;57146;48.140;16.304;2023-04-23T08:26:29;98858.78;;;16.16;57.31
69855;BME280;57146;48.140;16.304;2023-04-23T08:28:58;98861.09;;;16.17;57.89
69855;BME280;57146;48.140;16.304;2023-04-23T08:31:24;98852.00;;;16.18;58.10
69855;BME280;57146;48.140;16.304;2023-04-23T08:33:54;98852.06;;;16.22;56.51
69855;BME280;57146;48.140;16.304;2023-04-23T08:36:23;98851.50;;;16.13;55.51
69855;BME280;57146;48.140;16.304;2023-04-23T08:38:50;98851.16;;;16.14;57.55
69855;BME280;57146;48.140;16.304;2023-04-23T08:41:21;98845.81;;;16.30;57.79
69855;BME280;57146;48.140;16.304;2023-04-23T08:44:18;98846.50;;;16.46;56.05
69855;BME280;57146;48.140;16.304;2023-04-23T08:46:47;98839.53;;;16.58;56.16
69855;BME280;57146;48.140;16.304;2023-04-23T08:49:15;98844.97;;;16.65;55.59
69855;BME280;57146;48.140;16.304;2023-04-23T08:51:52;98843.75;;;16.78;56.92
69855;BME280;57146;48.140;16.304;2023-04-23T08:54:27;98839.00;;;16.87;57.26
69855;BME280;57146;48.140;16.304;2023-04-23T08:56:56;98845.72;;;17.01;56.68
69855;BME280;57146;48.140;16.304;2023-04-23T08:59:29;98840.16;;;17.09;55.46
69855;BME280;57146;48.140;16.304;2023-04-23T09:01:56;98835.03;;;17.20;55.16
69855;BME280;57146;48.140;16.304;2023-04-23T09:04:23;98841.22;;;17.28;54.85
69855;BME280;57146;48.140;16.304;2023-04-23T09:06:51;98834.50;;;17.34;54.69
69855;BME280;57146;48.140;16.304;2023-04-23T09:09:19;98840.69;;;17.41;54.81
69855;BME280;57146;48.140;16.304;2023-04-23T09:11:46;98830.88;;;17.45;54.03
69855;BME280;57146;48.140;16.304;2023-04-23T09:14:13;98841.25;;;17.51;53.59
69855;BME280;57146;48.140;16.304;2023-04-23T09:16:41;98839.78;;;17.57;55.04
69855;BME280;57146;48.140;16.304;2023-04-23T09:19:10;98826.59;;;17.64;54.25
69855;BME280;57146;48.140;16.304;2023-04-23T09:21:38;98841.53;;;17.68;53.85
69855;BME280;57146;48.140;16.304;2023-04-23T09:24:07;98830.50;;;17.70;53.18
69855;BME280;57146;48.140;16.304;2023-04-23T09:26:43;98833.31;;;17.77;54.28
69855;BME280;57146;48.140;16.304;2023-04-23T09:29:15;98835.31;;;17.84;53.72
69855;BME280;57146;48.140;16.304;2023-04-23T09:31:42;98828.44;;;17.83;54.38
69855;BME280;57146;48.140;16.304;2023-04-23T09:34:10;98826.91;;;17.82;53.37
69855;BME280;57146;48.140;16.304;2023-04-23T09:36:37;98834.53;;;17.83;54.26
69855;BME280;57146;48.140;16.304;2023-04-23T09:39:13;98825.13;;;17.89;53.98
69855;BME280;57146;48.140;16.304;2023-04-23T09:41:40;98821.63;;;17.85;52.43
69855;BME280;57146;48.140;16.304;2023-04-23T09:44:07;98818.63;;;17.87;53.58
69855;BME280;57146;48.140;16.304;2023-04-23T09:46:38;98817.59;;;17.95;53.52
69855;BME280;57146;48.140;16.304;2023-04-23T09:49:07;98818.41;;;17.99;52.74
69855;BME280;57146;48.140;16.304;2023-04-23T09:51:44;98808.22;;;18.05;53.18
69855;BME280;57146;48.140;16.304;2023-04-23T09:54:18;98815.50;;;18.08;52.61
69855;BME280;57146;48.140;16.304;2023-04-23T09:56:52;98817.44;;;18.11;52.87
69855;BME280;57146;48.140;16.304;2023-04-23T09:59:30;98810.56;;;18.10;53.56
69855;BME280;57146;48.140;16.304;2023-04-23T10:02:14;98812.53;;;18.16;52.46
69855;BME280;57146;48.140;16.304;2023-04-23T10:04:41;98810.72;;;18.24;53.59
69855;BME280;57146;48.140;16.304;2023-04-23T10:07:10;98810.00;;;18.27;53.04
69855;BME280;57146;48.140;16.304;2023-04-23T10:09:40;98805.16;;;18.33;52.70
69855;BME280;57146;48.140;16.304;2023-04-23T10:12:08;98795.28;;;18.37;52.79
69855;BME280;57146;48.140;16.304;2023-04-23T10:14:57;98793.06;;;18.42;52.19
69855;BME280;57146;48.140;16.304;2023-04-23T10:17:24;98782.41;;;18.42;51.70
69855;BME280;57146;48.140;16.304;2023-04-23T10:19:54;98784.00;;;18.47;51.66
69855;BME280;57146;48.140;16.304;2023-04-23T10:22:21;98789.03;;;18.56;50.83
69855;BME280;57146;48.140;16.304;2023-04-23T10:25:16;98771.91;;;18.57;50.82
69855;BME280;57146;48.140;16.304;2023-04-23T10:27:48;98767.38;;;18.57;50.48
69855;BME280;57146;48.140;16.304;2023-04-23T10:30:20;98771.94;;;18.60;50.83
69855;BME280;57146;48.140;16.304;2023-04-23T10:32:48;98762.06;;;18.61;51.21
69855;BME280;57146;48.140;16.304;2023-04-23T10:35:15;98762.13;;;18.68;51.12
69855;BME280;57146;48.140;16.304;2023-04-23T10:37:43;98760.72;;;18.78;52.00
69855;BME280;57146;48.140;16.304;2023-04-23T10:40:13;98758.13;;;18.85;52.01
69855;BME280;57146;48.140;16.304;2023-04-23T10:42:43;98762.41;;;18.93;51.02
69855;BME280;57146;48.140;16.304;2023-04-23T10:45:18;98754.44;;;18.97;50.15
69855;BME280;57146;48.140;16.304;2023-04-23T10:47:54;98741.97;;;19.08;49.40
69855;BME280;57146;48.140;16.304;2023-04-23T10:50:29;98749.56;;;19.09;49.87
69855;BME280;57146;48.140;16.304;2023-04-23T10:53:03;98740.47;;;19.10;48.92
69855;BME280;57146;48.140;16.304;2023-04-23T10:55:31;98737.00;;;19.10;49.66
69855;BME280;57146;48.140;16.304;2023-04-23T10:58:05;98741.25;;;19.14;49.42
69855;BME280;57146;48.140;16.304;2023-04-23T11:00:44;98744.31;;;19.20;48.84
69855;BME280;57146;48.140;16.304;2023-04-23T11:03:35;98733.31;;;19.22;48.86
69855;BME280;57146;48.140;16.304;2023-04-23T11:06:08;98734.06;;;19.22;47.48
69855;BME280;57146;48.140;16.304;2023-04-23T11:08:50;98732.56;;;19.25;48.37
69855;BME280;57146;48.140;16.304;2023-04-23T11:11:17;98726.44;;;19.24;48.33
69855;BME280;57146;48.140;16.304;2023-04-23T11:13:50;98718.88;;;19.30;48.50
69855;BME280;57146;48.140;16.304;2023-04-23T11:16:22;98722.00;;;19.39;48.71
69855;BME280;57146;48.140;16.304;2023-04-23T11:21:56;98720.53;;;19.52;47.85
69855;BME280;57146;48.140;16.304;2023-04-23T11:24:26;98724.38;;;19.55;47.92
69855;BME280;57146;48.140;16.304;2023-04-23T11:26:54;98712.94;;;19.54;48.09
69855;BME280;57146;48.140;16.304;2023-04-23T11:29:22;98709.84;;;19.52;47.82
69855;BME280;57146;48.140;16.304;2023-04-23T11:31:50;98708.34;;;19.51;48.03
69855;BME280;57146;48.140;16.304;2023-04-23T11:34:28;98706.47;;;19.59;47.91
69855;BME280;57146;48.140;16.304;2023-04-23T11:36:58;98698.84;;;19.61;47.95
69855;BME280;57146;48.140;16.304;2023-04-23T11:39:25;98695.44;;;19.60;47.87
69855;BME280;57146;48.140;16.304;2023-04-23T11:41:52;98692.75;;;19.60;47.94
69855;BME280;57146;48.140;16.304;2023-04-23T11:44:20;98700.78;;;19.60;48.64
69855;BME280;57146;48.140;16.304;2023-04-23T11:46:48;98690.50;;;19.66;48.17
69855;BME280;57146;48.140;16.304;2023-04-23T11:49:16;98690.13;;;19.64;47.59
69855;BME280;57146;48.140;16.304;2023-04-23T11:51:45;98682.16;;;19.68;47.73
69855;BME280;57146;48.140;16.304;2023-04-23T11:54:13;98685.16;;;19.66;48.04
69855;BME280;57146;48.140;16.304;2023-04-23T11:56:40;98689.03;;;19.76;47.11
69855;BME280;57146;48.140;16.304;2023-04-23T11:59:07;98681.41;;;19.78;47.15
69855;BME280;57146;48.140;16.304;2023-04-23T12:01:43;98682.56;;;19.77;47.75
69855;BME280;57146;48.140;16.304;2023-04-23T12:04:13;98677.22;;;19.80;47.04
69855;BME280;57146;48.140;16.304;2023-04-23T12:06:43;98681.81;;;19.83;46.39
69855;BME280;57146;48.140;16.304;2023-04-23T12:09:13;98668.84;;;19.82;46.30
69855;BME280;57146;48.140;16.304;2023-04-23T12:11:43;98666.56;;;19.84;46.32
69855;BME280;57146;48.140;16.304;2023-04-23T12:14:12;98664.28;;;19.86;46.78
69855;BME280;57146;48.140;16.304;2023-04-23T12:16:43;98662.00;;;19.92;46.94
69855;BME280;57146;48.140;16.304;2023-04-23T12:19:21;98660.16;;;20.03;45.75
69855;BME280;57146;48.140;16.304;2023-04-23T12:21:54;98661.28;;;20.05;45.33
69855;BME280;57146;48.140;16.304;2023-04-23T12:24:23;98660.94;;;20.14;44.56
69855;BME280;57146;48.140;16.304;2023-04-23T12:26:55;98654.44;;;20.15;44.94
69855;BME280;57146;48.140;16.304;2023-04-23T12:29:48;98657.53;;;20.17;45.65
69855;BME280;57146;48.140;16.304;2023-04-23T12:32:25;98651.41;;;20.20;45.88
69855;BME280;57146;48.140;16.304;2023-04-23T12:34:54;98650.28;;;20.21;45.86
69855;BME280;57146;48.140;16.304;2023-04-23T12:37:45;98641.50;;;20.24;45.46
69855;BME280;57146;48.140;16.304;2023-04-23T12:40:14;98650.66;;;20.23;44.50
69855;BME280;57146;48.140;16.304;2023-04-23T12:42:40;98645.69;;;20.25;44.45
69855;BME280;57146;48.140;16.304;2023-04-23T12:45:08;98642.63;;;20.27;44.79
69855;BME280;57146;48.140;16.304;2023-04-23T12:47:35;98642.63;;;20.30;43.55
69855;BME280;57146;48.140;16.304;2023-04-23T12:50:02;98635.38;;;20.31;43.44
69855;BME280;57146;48.140;16.304;2023-04-23T12:52:30;98628.91;;;20.28;43.20
69855;BME280;57146;48.140;16.304;2023-04-23T12:54:57;98624.69;;;20.27;43.66
69855;BME280;57146;48.140;16.304;2023-04-23T12:57:23;98625.84;;;20.30;42.81
69855;BME280;57146;48.140;16.304;2023-04-23T12:59:50;98618.97;;;20.32;42.53
69855;BME280;57146;48.140;16.304;2023-04-23T13:02:18;98624.31;;;20.32;43.28
69855;BME280;57146;48.140;16.304;2023-04-23T13:04:45;98620.91;;;20.39;43.28
69855;BME280;57146;48.140;16.304;2023-04-23T13:07:37;98609.47;;;20.42;42.70